Time;durP1;ratioP1;P1;durP2;ratioP2;P2;SDS_P1;SDS_P2;PMS_P1;PMS_P2;Temp;Humidity;BMP_temperature;BMP_pressure;BME280_temperature;BME280_humidity;BME280_pressure;Samples;Min_cycle;Max_cycle;Signal;HPM_P1;HPM_P2
2022/04/16 00:02:02;;;;;;;0.90;0.90;;;11.60;99.90;;;;;;5013118;28;20730;-67
2022/04/16 00:04:29;;;;;;;0.77;0.77;;;11.60;99.90;;;;;;5012478;28;20236;-68
2022/04/16 00:06:57;;;;;;;0.70;0.70;;;11.60;99.90;;;;;;5006963;28;20206;-72
2022/04/16 00:09:24;;;;;;;0.65;0.65;;;11.60;99.90;;;;;;5020459;28;20280;-68
2022/04/16 00:11:51;;;;;;;0.53;0.53;;;11.60;99.90;;;;;;5018413;28;20649;-68
2022/04/16 00:14:19;;;;;;;0.80;0.80;;;11.50;99.90;;;;;;5020289;28;20217;-69
2022/04/16 00:16:46;;;;;;;0.70;0.70;;;11.50;99.90;;;;;;5012583;28;20613;-73
2022/04/16 00:19:14;;;;;;;0.70;0.70;;;11.70;99.90;;;;;;5015792;28;20233;-69
2022/04/16 00:21:41;;;;;;;0.68;0.68;;;11.50;99.90;;;;;;5012730;28;20213;-66
2022/04/16 00:24:08;;;;;;;0.85;0.85;;;11.40;99.90;;;;;;5013130;28;20208;-68
2022/04/16 00:26:38;;;;;;;0.80;0.80;;;11.40;99.90;;;;;;5012457;28;20207;-68
2022/04/16 00:29:05;;;;;;;0.80;0.80;;;11.30;99.90;;;;;;4998319;28;20436;-67
2022/04/16 00:31:34;;;;;;;0.70;0.70;;;11.40;99.90;;;;;;5008451;28;20328;-68
2022/04/16 00:34:01;;;;;;;0.80;0.80;;;11.40;99.90;;;;;;5002789;28;20209;-68
2022/04/16 00:36:28;;;;;;;0.80;0.80;;;11.30;99.90;;;;;;5008622;28;20231;-67
2022/04/16 00:38:56;;;;;;;0.73;0.73;;;11.30;99.90;;;;;;5003929;28;20231;-68
2022/04/16 00:41:23;;;;;;;0.80;0.80;;;11.20;99.90;;;;;;5008204;28;20201;-67
2022/04/16 00:43:52;;;;;;;0.75;0.75;;;11.20;99.90;;;;;;5001329;28;20202;-69
2022/04/16 00:46:20;;;;;;;0.60;0.60;;;11.20;99.90;;;;;;5004473;28;20198;-66
2022/04/16 00:48:49;;;;;;;0.80;0.80;;;11.20;99.90;;;;;;5006494;28;20202;-70
2022/04/16 00:51:16;;;;;;;0.98;0.80;;;11.20;99.90;;;;;;4999833;28;20230;-67
2022/04/16 00:53:44;;;;;;;0.77;0.77;;;11.10;99.90;;;;;;5004243;28;20582;-65
2022/04/16 00:56:11;;;;;;;0.70;0.70;;;11.10;99.90;;;;;;5005838;28;20245;-69
2022/04/16 00:58:40;;;;;;;0.80;0.80;;;11.00;99.90;;;;;;4998976;28;20210;-66
2022/04/16 01:01:08;;;;;;;0.80;0.80;;;10.90;99.90;;;;;;5006443;28;20213;-68
2022/04/16 01:03:35;;;;;;;1.00;1.00;;;10.80;99.90;;;;;;5007218;28;20296;-67
2022/04/16 01:06:03;;;;;;;0.73;0.73;;;10.90;99.90;;;;;;5025509;28;20198;-72
2022/04/16 01:08:30;;;;;;;0.73;0.73;;;11.10;99.90;;;;;;5021974;28;20206;-68
2022/04/16 01:10:57;;;;;;;0.80;0.80;;;10.80;99.90;;;;;;5019614;28;20229;-68
2022/04/16 01:13:24;;;;;;;0.63;0.63;;;10.80;99.90;;;;;;5010890;28;20225;-71
2022/04/16 01:15:51;;;;;;;0.70;0.70;;;10.80;99.90;;;;;;5011787;28;20288;-70
2022/04/16 01:18:18;;;;;;;0.60;0.60;;;10.70;99.90;;;;;;4998333;28;20665;-68
2022/04/16 01:20:45;;;;;;;0.70;0.70;;;10.60;99.90;;;;;;5005642;28;20228;-70
2022/04/16 01:23:14;;;;;;;1.08;1.08;;;10.60;99.90;;;;;;5010173;28;20217;-68
2022/04/16 01:25:42;;;;;;;0.70;0.70;;;10.50;99.90;;;;;;5014897;28;20244;-68
2022/04/16 01:28:10;;;;;;;0.70;0.70;;;10.50;99.90;;;;;;5003643;28;20205;-71
2022/04/16 01:30:37;;;;;;;0.50;0.50;;;10.50;99.90;;;;;;5006765;28;20225;-69
2022/04/16 01:33:04;;;;;;;0.70;0.70;;;10.50;99.90;;;;;;5002494;28;20309;-67
2022/04/16 01:35:31;;;;;;;0.60;0.60;;;10.60;99.90;;;;;;5005690;28;20331;-68
2022/04/16 01:37:58;;;;;;;0.70;0.70;;;10.60;99.90;;;;;;5003375;28;20209;-72
2022/04/16 01:40:26;;;;;;;0.77;0.77;;;10.60;99.90;;;;;;5007990;28;20320;-69
2022/04/16 01:42:56;;;;;;;0.80;0.80;;;10.50;99.90;;;;;;5011981;28;20289;-66
2022/04/16 01:45:23;;;;;;;0.73;0.73;;;10.60;99.90;;;;;;5005819;28;20212;-68
2022/04/16 01:47:51;;;;;;;0.80;0.80;;;10.60;99.90;;;;;;5008262;28;20617;-66
2022/04/16 01:50:19;;;;;;;0.80;0.80;;;10.50;99.90;;;;;;5005358;28;20258;-69
2022/04/16 01:52:47;;;;;;;0.70;0.70;;;10.50;99.90;;;;;;5011905;28;20205;-67
2022/04/16 01:55:14;;;;;;;0.52;0.52;;;10.40;99.90;;;;;;5010918;28;20245;-67
2022/04/16 01:57:42;;;;;;;0.83;0.83;;;10.40;99.90;;;;;;5010585;28;20259;-66
2022/04/16 02:00:14;;;;;;;0.63;0.63;;;10.30;99.90;;;;;;4998407;28;20308;-67
2022/04/16 02:02:42;;;;;;;0.77;0.77;;;10.30;99.90;;;;;;5005983;28;20212;-69
2022/04/16 02:05:10;;;;;;;0.80;0.80;;;10.20;99.90;;;;;;5012516;28;20273;-69
2022/04/16 02:07:38;;;;;;;0.90;0.90;;;10.20;99.90;;;;;;5008850;28;20626;-68
2022/04/16 02:10:06;;;;;;;0.70;0.70;;;10.10;99.90;;;;;;5010723;28;20770;-66
2022/04/16 02:12:33;;;;;;;0.82;0.82;;;10.10;99.90;;;;;;5011322;28;20205;-67
2022/04/16 02:15:02;;;;;;;0.70;0.70;;;10.10;99.90;;;;;;5008231;28;20301;-65
2022/04/16 02:17:32;;;;;;;0.70;0.70;;;10.10;99.90;;;;;;5003969;28;20297;-64
2022/04/16 02:19:59;;;;;;;0.70;0.70;;;10.10;99.90;;;;;;5015571;28;20316;-66
2022/04/16 02:22:26;;;;;;;0.70;0.70;;;10.10;99.90;;;;;;5023425;28;20581;-70
2022/04/16 02:24:53;;;;;;;0.70;0.70;;;10.10;99.90;;;;;;5016908;28;20202;-72
2022/04/16 02:27:20;;;;;;;0.82;0.82;;;10.20;99.90;;;;;;5018974;28;20296;-66
2022/04/16 02:29:47;;;;;;;0.80;0.80;;;10.20;99.90;;;;;;5016025;28;20229;-66
2022/04/16 02:32:15;;;;;;;0.60;0.60;;;10.20;99.90;;;;;;5026589;28;20554;-69
2022/04/16 02:34:42;;;;;;;1.03;1.00;;;10.20;99.90;;;;;;5014743;28;20202;-67
2022/04/16 02:37:09;;;;;;;0.70;0.70;;;10.10;99.90;;;;;;5015954;28;20225;-66
2022/04/16 02:39:35;;;;;;;0.80;0.80;;;10.00;99.90;;;;;;5010535;28;20221;-68
2022/04/16 02:42:02;;;;;;;0.82;0.80;;;9.90;99.90;;;;;;5010817;28;20207;-65
2022/04/16 02:47:15;;;;;;;0.90;0.90;;;10.00;99.90;;;;;;5006822;28;20201;-65
2022/04/16 02:49:43;;;;;;;0.82;0.82;;;10.00;99.90;;;;;;5001489;28;20221;-67
2022/04/16 02:52:10;;;;;;;0.90;0.90;;;10.00;99.90;;;;;;4999557;28;20316;-66
2022/04/16 02:54:37;;;;;;;0.80;0.80;;;10.00;99.90;;;;;;4998691;28;20292;-66
2022/04/16 02:57:05;;;;;;;0.90;0.90;;;10.00;99.90;;;;;;5002548;28;20225;-67
2022/04/16 02:59:35;;;;;;;0.55;0.55;;;9.90;99.90;;;;;;4996907;28;20235;-66
2022/04/16 03:02:02;;;;;;;0.70;0.70;;;9.90;99.90;;;;;;4995596;28;20212;-68
2022/04/16 03:04:30;;;;;;;0.88;0.88;;;10.00;99.90;;;;;;5010398;28;20308;-67
2022/04/16 03:06:57;;;;;;;0.85;0.85;;;9.90;99.90;;;;;;5009476;28;20656;-65
2022/04/16 03:09:24;;;;;;;0.70;0.70;;;9.90;99.90;;;;;;5011384;28;20225;-69
2022/04/16 03:11:51;;;;;;;0.70;0.70;;;9.70;99.90;;;;;;5010358;28;20213;-70
2022/04/16 03:19:49;;;;;;;0.73;0.73;;;9.70;99.90;;;;;;5009757;28;20216;-67
2022/04/16 03:22:16;;;;;;;0.75;0.75;;;9.70;99.90;;;;;;5011844;28;20209;-67
2022/04/16 03:24:43;;;;;;;0.90;0.90;;;9.60;99.90;;;;;;5012941;28;20213;-68
2022/04/16 03:27:10;;;;;;;0.70;0.70;;;9.60;99.90;;;;;;5012576;28;20201;-67
2022/04/16 03:29:37;;;;;;;0.70;0.70;;;9.60;99.90;;;;;;5016011;28;20252;-66
2022/04/16 03:32:05;;;;;;;0.70;0.70;;;9.60;99.90;;;;;;5015986;28;20288;-67
2022/04/16 03:34:32;;;;;;;0.80;0.80;;;9.50;99.90;;;;;;5013676;28;20680;-66
2022/04/16 03:37:00;;;;;;;0.70;0.70;;;9.50;99.90;;;;;;5015393;28;20260;-67
2022/04/16 03:39:27;;;;;;;0.80;0.80;;;9.40;99.90;;;;;;5015168;28;20391;-68
2022/04/16 03:41:54;;;;;;;0.80;0.80;;;9.30;99.90;;;;;;5021406;28;20217;-68
2022/04/16 03:44:21;;;;;;;0.80;0.80;;;9.30;99.90;;;;;;5017177;28;20221;-68
2022/04/16 03:46:48;;;;;;;0.80;0.80;;;9.30;99.90;;;;;;5013676;28;20207;-68
2022/04/16 03:49:15;;;;;;;0.80;0.80;;;9.20;99.90;;;;;;5006281;28;20313;-66
2022/04/16 03:51:42;;;;;;;0.90;0.90;;;9.10;99.90;;;;;;5000488;28;20206;-66
2022/04/16 04:02:29;;;;;;;0.90;0.90;;;9.10;99.90;;;;;;5002344;28;20539;-66
2022/04/16 04:04:56;;;;;;;0.95;0.95;;;9.00;99.90;;;;;;5013187;28;20205;-67
2022/04/16 04:07:25;;;;;;;0.88;0.88;;;9.00;99.90;;;;;;5012606;28;20210;-68
2022/04/16 04:09:53;;;;;;;0.73;0.73;;;8.90;99.90;;;;;;5007529;28;20867;-67
2022/04/16 04:12:20;;;;;;;0.73;0.73;;;8.90;99.90;;;;;;4999206;28;20207;-68
2022/04/16 04:14:48;;;;;;;0.73;0.73;;;9.00;99.90;;;;;;5019540;28;20273;-67
2022/04/16 04:17:15;;;;;;;0.70;0.70;;;9.00;99.90;;;;;;5017374;28;20240;-67
2022/04/16 04:19:44;;;;;;;0.83;0.83;;;9.10;99.90;;;;;;5008763;28;20255;-68
2022/04/16 04:22:12;;;;;;;0.80;0.80;;;9.00;99.90;;;;;;5034734;28;20196;-70
2022/04/16 04:24:40;;;;;;;1.33;1.23;;;9.00;99.90;;;;;;5035540;28;20205;-69
2022/04/16 04:27:09;;;;;;;1.20;1.20;;;8.90;99.90;;;;;;5024097;28;20255;-68
2022/04/16 04:29:37;;;;;;;0.97;0.97;;;8.80;99.90;;;;;;5012370;28;20263;-74
2022/04/16 04:32:04;;;;;;;0.82;0.82;;;8.80;99.90;;;;;;5013640;28;20216;-67
2022/04/16 04:34:31;;;;;;;0.70;0.70;;;8.80;99.90;;;;;;5012633;28;20209;-67
2022/04/16 04:36:58;;;;;;;0.90;0.90;;;8.90;99.90;;;;;;5010348;28;20264;-67
2022/04/16 04:39:25;;;;;;;0.90;0.90;;;9.20;99.90;;;;;;5012054;28;20304;-68
2022/04/16 04:41:52;;;;;;;0.80;0.80;;;9.10;99.90;;;;;;5012563;28;20312;-66
2022/04/16 04:44:20;;;;;;;1.00;1.00;;;9.10;99.90;;;;;;5012701;28;20212;-67
2022/04/16 04:46:47;;;;;;;1.00;1.00;;;9.00;99.90;;;;;;5011148;28;20313;-69
2022/04/16 04:49:14;;;;;;;0.70;0.70;;;9.00;99.90;;;;;;5012431;28;20256;-67
2022/04/16 04:51:42;;;;;;;0.70;0.70;;;9.10;99.90;;;;;;5012233;28;20225;-69
2022/04/16 04:54:09;;;;;;;0.90;0.90;;;9.20;99.90;;;;;;5015640;28;20211;-66
2022/04/16 04:56:36;;;;;;;0.90;0.90;;;9.20;99.90;;;;;;5017736;28;20316;-66
2022/04/16 04:59:04;;;;;;;1.00;1.00;;;9.30;99.90;;;;;;5014963;28;20308;-68
2022/04/16 05:01:32;;;;;;;0.80;0.80;;;9.20;99.90;;;;;;5011006;28;20261;-66
2022/04/16 05:03:59;;;;;;;0.90;0.90;;;9.10;99.90;;;;;;5015164;28;20213;-74
2022/04/16 05:06:26;;;;;;;0.90;0.90;;;9.10;99.90;;;;;;5014837;28;20189;-69
2022/04/16 05:08:53;;;;;;;0.80;0.80;;;9.10;99.90;;;;;;5014474;28;20295;-69
2022/04/16 05:11:20;;;;;;;1.00;1.00;;;9.10;99.90;;;;;;5014181;28;20215;-69
2022/04/16 05:13:46;;;;;;;0.90;0.90;;;9.10;99.90;;;;;;5015575;28;20688;-67
2022/04/16 05:16:13;;;;;;;0.80;0.80;;;9.00;99.90;;;;;;5017486;28;20664;-67
2022/04/16 05:18:43;;;;;;;0.90;0.90;;;9.00;99.90;;;;;;5013245;28;20201;-68
2022/04/16 05:21:10;;;;;;;0.90;0.90;;;9.10;99.90;;;;;;5012518;28;20217;-68
2022/04/16 05:23:39;;;;;;;1.03;1.03;;;9.00;99.90;;;;;;5012876;28;20244;-65
2022/04/16 05:26:07;;;;;;;0.90;0.90;;;9.00;99.90;;;;;;5012471;28;20209;-68
2022/04/16 05:28:34;;;;;;;1.10;1.00;;;9.00;99.90;;;;;;5011993;28;20221;-69
2022/04/16 05:31:03;;;;;;;1.00;1.00;;;9.10;99.90;;;;;;5017571;28;20229;-66
2022/04/16 05:36:15;;;;;;;1.00;1.00;;;9.10;99.90;;;;;;5025452;28;20244;-67
2022/04/16 05:38:42;;;;;;;0.90;0.90;;;9.20;99.90;;;;;;5019965;28;20224;-70
2022/04/16 05:41:09;;;;;;;0.90;0.90;;;9.20;99.90;;;;;;5004566;28;20216;-67
2022/04/16 05:43:36;;;;;;;1.13;1.02;;;9.10;99.90;;;;;;5009827;28;20217;-68
2022/04/16 05:46:03;;;;;;;1.00;1.00;;;9.20;99.90;;;;;;5011773;28;20296;-67
2022/04/16 05:48:30;;;;;;;1.23;1.20;;;9.30;99.90;;;;;;5012256;28;20207;-67
2022/04/16 05:50:58;;;;;;;1.07;1.07;;;9.40;99.90;;;;;;5009707;28;20745;-67
2022/04/16 05:53:26;;;;;;;1.20;1.20;;;9.30;99.90;;;;;;5005108;28;20278;-69
2022/04/16 05:55:53;;;;;;;1.10;1.10;;;9.30;99.90;;;;;;5010198;28;20247;-68
2022/04/16 05:58:20;;;;;;;1.13;1.10;;;9.40;99.90;;;;;;5010462;28;20224;-67
2022/04/16 06:00:48;;;;;;;1.20;1.20;;;9.40;99.90;;;;;;5010469;28;20252;-70
2022/04/16 06:03:15;;;;;;;1.10;1.10;;;9.50;99.90;;;;;;5005776;28;20213;-68
2022/04/16 06:05:42;;;;;;;1.23;1.23;;;9.60;99.90;;;;;;5012690;28;20723;-67
2022/04/16 06:08:09;;;;;;;1.00;1.00;;;9.70;99.90;;;;;;5010217;28;20284;-66
2022/04/16 06:10:37;;;;;;;1.60;1.20;;;9.70;99.90;;;;;;5012682;28;20272;-67
2022/04/16 06:13:05;;;;;;;1.30;1.30;;;9.70;99.90;;;;;;5012073;28;20237;-67
2022/04/16 06:15:32;;;;;;;1.20;1.20;;;9.80;99.90;;;;;;5007489;28;20206;-67
2022/04/16 06:17:59;;;;;;;1.00;1.00;;;9.90;99.90;;;;;;5002987;28;20217;-71
2022/04/16 06:20:26;;;;;;;1.00;1.00;;;10.00;99.90;;;;;;5012140;28;20229;-66
2022/04/16 06:22:53;;;;;;;0.93;0.93;;;10.00;99.90;;;;;;5011154;28;20300;-69
2022/04/16 06:25:20;;;;;;;1.10;1.10;;;10.20;99.90;;;;;;5023624;28;20208;-66
2022/04/16 06:27:48;;;;;;;1.00;1.00;;;10.40;99.90;;;;;;5024444;28;20233;-68
2022/04/16 06:30:15;;;;;;;1.00;1.00;;;10.50;99.90;;;;;;5006567;28;20321;-68
2022/04/16 06:32:42;;;;;;;1.10;1.10;;;10.60;99.90;;;;;;5013286;28;20292;-69
2022/04/16 06:35:12;;;;;;;1.10;1.10;;;10.70;99.90;;;;;;5010366;28;20751;-65
2022/04/16 06:37:40;;;;;;;1.10;1.10;;;10.80;99.90;;;;;;5012028;28;20232;-66
2022/04/16 06:40:08;;;;;;;0.85;0.85;;;10.90;99.90;;;;;;5009202;28;20222;-67
2022/04/16 06:42:35;;;;;;;1.00;1.00;;;11.00;99.90;;;;;;5004765;28;20206;-67
2022/04/16 06:45:04;;;;;;;1.00;1.00;;;11.00;99.90;;;;;;5005707;28;20616;-70
2022/04/16 06:47:30;;;;;;;1.48;1.00;;;11.10;99.90;;;;;;5011257;28;20288;-68
2022/04/16 06:49:57;;;;;;;1.00;1.00;;;11.20;99.90;;;;;;5010280;28;20240;-67
2022/04/16 06:52:25;;;;;;;0.90;0.90;;;11.40;99.90;;;;;;5011493;28;20740;-71
2022/04/16 06:54:52;;;;;;;1.10;1.10;;;11.50;99.90;;;;;;5011538;28;20201;-67
2022/04/16 06:57:19;;;;;;;0.90;0.90;;;11.60;99.90;;;;;;5009250;28;20335;-66
2022/04/16 06:59:46;;;;;;;1.00;1.00;;;11.70;99.90;;;;;;5010184;28;20723;-66
2022/04/16 07:02:14;;;;;;;1.37;1.27;;;11.90;99.90;;;;;;5009917;28;20205;-66
2022/04/16 07:04:41;;;;;;;1.02;1.02;;;12.00;99.90;;;;;;5010257;28;20208;-67
2022/04/16 07:07:09;;;;;;;1.07;1.07;;;12.10;99.90;;;;;;5008379;28;20300;-67
2022/04/16 07:09:38;;;;;;;3.43;1.00;;;12.10;99.90;;;;;;5004701;28;20220;-68
2022/04/16 07:12:07;;;;;;;1.10;1.10;;;12.20;99.90;;;;;;5010798;28;20216;-68
2022/04/16 07:14:34;;;;;;;1.00;1.00;;;12.30;99.90;;;;;;5009989;28;20213;-68
2022/04/16 07:17:01;;;;;;;1.00;1.00;;;12.50;99.90;;;;;;5005802;28;20221;-70
2022/04/16 07:19:30;;;;;;;1.00;1.00;;;12.70;99.90;;;;;;5012367;28;20229;-68
2022/04/16 07:21:57;;;;;;;0.70;0.70;;;12.90;99.90;;;;;;5012596;28;20521;-69
2022/04/16 07:24:25;;;;;;;0.98;0.98;;;13.10;99.90;;;;;;5011997;28;20659;-65
2022/04/16 07:26:53;;;;;;;0.60;0.60;;;13.30;99.90;;;;;;5010131;28;20205;-66
2022/04/16 07:29:20;;;;;;;0.70;0.70;;;13.40;99.90;;;;;;5008040;28;20241;-66
2022/04/16 07:31:47;;;;;;;0.90;0.90;;;13.50;99.90;;;;;;5003438;28;20293;-70
2022/04/16 07:34:16;;;;;;;0.90;0.90;;;13.50;99.90;;;;;;5006816;28;20205;-66
2022/04/16 07:36:45;;;;;;;0.80;0.80;;;13.80;99.90;;;;;;5001250;28;20197;-66
2022/04/16 07:39:13;;;;;;;1.80;1.10;;;14.00;99.90;;;;;;5007097;28;21373;-68
2022/04/16 07:41:40;;;;;;;0.90;0.90;;;14.10;99.90;;;;;;5002617;28;20293;-69
2022/04/16 07:44:07;;;;;;;0.70;0.70;;;14.10;99.90;;;;;;5000791;28;20292;-65
2022/04/16 07:46:35;;;;;;;0.77;0.77;;;14.30;99.90;;;;;;4997196;28;20513;-68
2022/04/16 07:49:02;;;;;;;0.60;0.60;;;14.40;99.90;;;;;;5001210;28;20647;-69
2022/04/16 07:51:30;;;;;;;0.50;0.50;;;14.60;99.90;;;;;;5000728;28;20712;-65
2022/04/16 07:53:59;;;;;;;0.63;0.63;;;14.80;99.90;;;;;;4999563;28;20202;-65
2022/04/16 07:56:26;;;;;;;0.63;0.63;;;15.00;99.90;;;;;;4995665;28;20237;-67
2022/04/16 07:58:55;;;;;;;0.50;0.50;;;15.10;99.90;;;;;;5000506;28;20229;-68
2022/04/16 08:01:22;;;;;;;0.67;0.67;;;15.10;99.90;;;;;;5017476;28;20221;-65
2022/04/16 08:03:49;;;;;;;0.90;0.90;;;15.10;99.90;;;;;;5022133;28;20205;-68
2022/04/16 08:06:16;;;;;;;0.57;0.57;;;15.10;99.90;;;;;;5003514;28;20208;-67
2022/04/16 08:08:43;;;;;;;0.80;0.80;;;15.10;99.90;;;;;;5009125;28;20305;-68
2022/04/16 08:11:12;;;;;;;1.65;0.77;;;15.30;99.90;;;;;;4998736;28;20222;-67
2022/04/16 08:13:39;;;;;;;1.02;0.80;;;15.30;99.90;;;;;;5009292;28;20686;-69
2022/04/16 08:16:06;;;;;;;0.60;0.60;;;15.20;99.90;;;;;;5007162;28;20233;-66
2022/04/16 08:18:33;;;;;;;0.70;0.70;;;15.30;99.90;;;;;;5013107;28;20228;-67
2022/04/16 08:21:00;;;;;;;0.70;0.70;;;15.50;99.90;;;;;;5006415;28;20288;-68
2022/04/16 08:23:28;;;;;;;2.10;1.00;;;15.60;99.90;;;;;;5013165;28;20209;-67
2022/04/16 08:25:55;;;;;;;0.97;0.80;;;15.60;99.90;;;;;;5013125;28;20212;-67
2022/04/16 08:28:23;;;;;;;1.27;0.77;;;15.50;99.90;;;;;;5025076;28;20208;-69
2022/04/16 08:30:51;;;;;;;2.00;0.70;;;15.60;99.90;;;;;;5022998;28;20218;-66
2022/04/16 08:33:19;;;;;;;3.90;0.90;;;15.60;99.90;;;;;;5009707;28;20205;-68
2022/04/16 08:35:47;;;;;;;0.68;0.68;;;15.60;99.90;;;;;;5013992;28;20245;-67
2022/04/16 08:38:14;;;;;;;0.70;0.70;;;15.50;99.90;;;;;;5004837;28;20264;-66
2022/04/16 08:40:41;;;;;;;0.80;0.80;;;15.30;99.90;;;;;;5011840;28;20307;-65
2022/04/16 08:43:08;;;;;;;1.37;0.70;;;15.60;99.90;;;;;;5006058;28;20209;-66
2022/04/16 08:45:38;;;;;;;0.60;0.60;;;15.60;99.90;;;;;;5012182;28;20217;-65
2022/04/16 08:48:06;;;;;;;0.70;0.70;;;15.90;99.90;;;;;;5009309;28;20296;-68
2022/04/16 08:50:34;;;;;;;0.80;0.80;;;16.00;99.90;;;;;;5009078;28;20225;-66
2022/04/16 08:53:01;;;;;;;0.60;0.60;;;15.70;99.90;;;;;;5014733;28;20240;-67
2022/04/16 08:55:29;;;;;;;0.43;0.43;;;15.50;99.90;;;;;;5004057;28;20243;-66
2022/04/16 08:57:57;;;;;;;0.60;0.60;;;15.60;99.90;;;;;;5001288;28;20630;-67
2022/04/16 09:00:24;;;;;;;0.93;0.93;;;15.70;99.90;;;;;;4999134;28;20242;-68
2022/04/16 09:02:56;;;;;;;0.90;0.90;;;15.80;99.90;;;;;;4998321;28;20661;-66
2022/04/16 09:05:24;;;;;;;1.17;1.08;;;16.00;99.90;;;;;;4994926;28;20699;-67
2022/04/16 09:07:53;;;;;;;0.82;0.82;;;16.20;99.90;;;;;;4999283;28;20201;-67
2022/04/16 09:10:20;;;;;;;0.77;0.77;;;16.10;99.90;;;;;;5008354;28;20247;-67
2022/04/16 09:12:51;;;;;;;1.00;1.00;;;16.30;99.90;;;;;;5004437;28;20216;-67
2022/04/16 09:15:18;;;;;;;0.90;0.90;;;16.20;99.90;;;;;;5009686;28;20233;-66
2022/04/16 09:17:55;;;;;;;0.80;0.80;;;16.00;99.90;;;;;;5009176;28;20225;-66
2022/04/16 09:20:35;;;;;;;0.90;0.90;;;16.00;99.90;;;;;;5003549;28;20328;-66
2022/04/16 09:23:03;;;;;;;1.05;1.05;;;16.20;99.90;;;;;;5007988;28;20244;-69
2022/04/16 09:25:32;;;;;;;1.05;1.05;;;16.20;99.90;;;;;;5010966;28;20202;-67
2022/04/16 09:28:07;;;;;;;0.90;0.90;;;16.10;99.90;;;;;;5003970;28;20201;-68
2022/04/16 09:30:34;;;;;;;0.80;0.80;;;16.10;99.90;;;;;;5001720;28;20221;-69
2022/04/16 09:33:02;;;;;;;0.77;0.77;;;16.20;99.90;;;;;;5028056;28;20200;-69
2022/04/16 09:35:32;;;;;;;1.63;1.02;;;16.10;99.90;;;;;;5015980;28;20209;-67
2022/04/16 09:38:00;;;;;;;1.30;1.20;;;16.10;99.90;;;;;;5008497;28;20261;-68
2022/04/16 09:40:29;;;;;;;1.17;1.05;;;16.00;99.90;;;;;;5002743;28;20321;-67
2022/04/16 09:42:57;;;;;;;1.20;0.90;;;16.00;99.90;;;;;;5013137;28;20213;-69
2022/04/16 09:45:24;;;;;;;1.20;1.20;;;16.00;99.90;;;;;;5024620;28;20742;-67
2022/04/16 09:47:52;;;;;;;0.98;0.98;;;15.90;99.90;;;;;;5009282;28;20293;-68
2022/04/16 09:50:20;;;;;;;0.80;0.80;;;15.80;99.90;;;;;;5005287;28;20307;-65
2022/04/16 09:52:52;;;;;;;0.80;0.80;;;16.00;99.90;;;;;;5006780;28;20213;-65
2022/04/16 09:55:21;;;;;;;0.80;0.80;;;16.10;99.90;;;;;;5004710;28;20292;-70
2022/04/16 09:57:53;;;;;;;0.70;0.70;;;16.40;99.90;;;;;;5006268;28;20221;-66
2022/04/16 10:00:21;;;;;;;0.80;0.80;;;16.50;99.90;;;;;;5001447;28;20225;-68
2022/04/16 10:02:48;;;;;;;0.70;0.70;;;16.70;99.90;;;;;;5005670;28;20237;-67
2022/04/16 10:05:15;;;;;;;0.85;0.85;;;16.70;99.90;;;;;;5009435;28;20316;-68
2022/04/16 10:07:44;;;;;;;0.73;0.73;;;16.80;99.90;;;;;;5005359;28;20224;-67
2022/04/16 10:10:24;;;;;;;1.20;0.80;;;16.90;99.90;;;;;;5000146;28;20230;-68
2022/04/16 10:13:03;;;;;;;0.80;0.80;;;16.90;99.90;;;;;;5005493;28;20284;-67
2022/04/16 10:15:48;;;;;;;0.70;0.70;;;17.00;99.90;;;;;;5000568;28;20205;-69
2022/04/16 10:18:15;;;;;;;0.90;0.90;;;16.90;99.90;;;;;;5004792;28;20221;-66
2022/04/16 10:20:51;;;;;;;0.80;0.80;;;17.00;99.90;;;;;;5003315;28;20661;-69
2022/04/16 10:23:27;;;;;;;0.80;0.80;;;17.00;99.90;;;;;;5001817;28;20731;-67
2022/04/16 10:26:01;;;;;;;0.70;0.70;;;17.20;99.90;;;;;;5005314;28;20211;-64
2022/04/16 10:28:34;;;;;;;0.95;0.90;;;17.20;99.90;;;;;;5007865;28;20227;-67
2022/04/16 10:31:01;;;;;;;0.65;0.65;;;17.20;99.90;;;;;;5013993;28;20205;-68
2022/04/16 10:33:29;;;;;;;0.70;0.70;;;17.40;99.90;;;;;;5015825;28;20700;-67
2022/04/16 10:35:58;;;;;;;0.73;0.73;;;17.50;99.90;;;;;;5012340;28;20209;-67
2022/04/16 10:38:26;;;;;;;0.90;0.90;;;17.50;99.90;;;;;;4997530;28;20276;-68
2022/04/16 10:40:58;;;;;;;0.80;0.80;;;17.60;99.90;;;;;;5001837;28;20224;-66
2022/04/16 10:43:27;;;;;;;0.80;0.80;;;17.80;99.90;;;;;;5013157;28;20198;-66
2022/04/16 10:46:00;;;;;;;0.80;0.80;;;18.00;99.90;;;;;;5022461;28;20269;-66
2022/04/16 10:48:29;;;;;;;0.70;0.70;;;17.80;99.90;;;;;;5018760;28;20714;-67
2022/04/16 10:50:58;;;;;;;1.55;0.90;;;17.90;99.90;;;;;;5009632;28;20319;-68
2022/04/16 10:53:29;;;;;;;0.80;0.80;;;17.90;99.90;;;;;;5000456;28;20206;-67
2022/04/16 10:56:07;;;;;;;0.90;0.90;;;18.00;99.90;;;;;;4997771;28;20238;-67
2022/04/16 10:58:34;;;;;;;0.80;0.80;;;17.90;99.90;;;;;;4999751;28;20222;-68
2022/04/16 11:01:08;;;;;;;0.80;0.80;;;17.90;99.90;;;;;;4996734;28;20226;-68
2022/04/16 11:03:44;;;;;;;0.80;0.80;;;18.00;99.90;;;;;;4992729;28;20213;-67
2022/04/16 11:06:11;;;;;;;0.77;0.77;;;18.10;99.90;;;;;;4998919;28;20198;-68
2022/04/16 11:08:40;;;;;;;0.70;0.70;;;18.10;99.90;;;;;;5001540;28;20225;-69
2022/04/16 11:11:09;;;;;;;0.70;0.70;;;18.30;99.90;;;;;;5005349;28;20213;-68
2022/04/16 11:13:37;;;;;;;0.70;0.70;;;18.20;99.90;;;;;;4994533;28;20206;-68
2022/04/16 11:16:05;;;;;;;0.70;0.70;;;18.10;99.90;;;;;;4997512;28;20201;-68
2022/04/16 11:18:45;;;;;;;0.70;0.70;;;18.30;99.90;;;;;;5000119;28;20229;-68
2022/04/16 11:21:14;;;;;;;0.65;0.65;;;18.40;99.90;;;;;;5000789;28;20215;-66
2022/04/16 11:23:43;;;;;;;0.63;0.63;;;18.60;99.90;;;;;;4997335;28;20202;-68
2022/04/16 11:34:32;;;;;;;0.63;0.63;;;18.90;99.90;;;;;;5006790;28;20229;-67
2022/04/16 11:37:00;;;;;;;0.70;0.70;;;18.60;99.90;;;;;;5004757;28;20201;-67
2022/04/16 11:39:28;;;;;;;0.80;0.80;;;18.40;99.90;;;;;;5009838;28;20261;-68
2022/04/16 11:41:58;;;;;;;0.95;0.80;;;18.40;99.90;;;;;;5005139;28;20261;-67
2022/04/16 11:44:38;;;;;;;0.90;0.90;;;18.50;99.90;;;;;;5013090;28;20586;-65
2022/04/16 11:47:12;;;;;;;0.90;0.90;;;18.10;99.90;;;;;;5003379;28;20209;-67
2022/04/16 11:49:42;;;;;;;1.02;1.00;;;18.10;99.90;;;;;;5012992;28;20326;-67
2022/04/16 11:52:10;;;;;;;0.73;0.73;;;18.40;99.90;;;;;;5011289;28;20206;-67
2022/04/16 11:54:37;;;;;;;0.77;0.77;;;18.30;99.90;;;;;;5014979;28;20243;-67
2022/04/16 11:57:06;;;;;;;0.70;0.70;;;18.10;99.90;;;;;;5016095;28;20305;-66
2022/04/16 11:59:35;;;;;;;0.57;0.57;;;18.30;99.90;;;;;;5013821;28;20260;-67
2022/04/16 12:02:07;;;;;;;0.88;0.88;;;18.50;99.90;;;;;;5018972;28;20618;-66
2022/04/16 12:04:42;;;;;;;0.90;0.90;;;18.60;99.90;;;;;;5029547;28;20202;-67
2022/04/16 12:07:16;;;;;;;0.65;0.65;;;18.40;99.90;;;;;;5028623;28;20537;-70
2022/04/16 12:09:46;;;;;;;0.70;0.70;;;18.30;99.90;;;;;;5033914;28;20218;-67
2022/04/16 12:12:16;;;;;;;0.80;0.80;;;18.30;99.90;;;;;;5025587;28;20263;-69
2022/04/16 12:14:47;;;;;;;1.45;0.88;;;18.30;99.90;;;;;;5024473;28;20205;-67
2022/04/16 12:17:24;;;;;;;0.80;0.80;;;18.70;99.90;;;;;;5014822;28;20206;-67
2022/04/16 12:20:04;;;;;;;0.70;0.70;;;18.90;99.90;;;;;;5009889;28;20679;-65
2022/04/16 12:22:31;;;;;;;0.60;0.60;;;18.80;99.90;;;;;;5019723;28;20228;-67
2022/04/16 12:25:08;;;;;;;0.90;0.90;;;19.00;99.90;;;;;;5007334;28;20217;-67
2022/04/16 12:27:36;;;;;;;0.95;0.95;;;18.60;99.90;;;;;;5010274;28;20198;-67
2022/04/16 12:30:05;;;;;;;0.93;0.93;;;18.40;99.90;;;;;;5016057;28;20257;-68
2022/04/16 12:32:31;;;;;;;0.90;0.90;;;18.50;99.90;;;;;;5023853;28;20225;-69
2022/04/16 12:34:59;;;;;;;0.90;0.90;;;18.40;99.90;;;;;;5008217;28;20297;-67
2022/04/16 12:37:26;;;;;;;0.93;0.93;;;18.50;99.90;;;;;;5003721;28;20221;-66
2022/04/16 12:39:53;;;;;;;1.88;0.88;;;18.50;99.90;;;;;;5008799;28;20251;-67
2022/04/16 12:42:20;;;;;;;0.60;0.60;;;18.60;99.90;;;;;;5010277;28;20512;-68
2022/04/16 12:44:48;;;;;;;0.68;0.68;;;18.80;99.90;;;;;;5002933;28;20653;-67
2022/04/16 12:47:15;;;;;;;0.85;0.85;;;18.90;99.90;;;;;;5005102;28;20210;-67
2022/04/16 12:49:42;;;;;;;0.63;0.63;;;18.90;99.90;;;;;;5007170;28;20225;-66
2022/04/16 12:52:10;;;;;;;0.68;0.68;;;19.10;99.90;;;;;;5005745;28;20194;-66
2022/04/16 12:54:36;;;;;;;0.80;0.80;;;19.20;99.90;;;;;;5010790;28;20579;-66
2022/04/16 12:57:04;;;;;;;0.70;0.70;;;19.20;99.90;;;;;;5013160;28;20260;-66
2022/04/16 12:59:31;;;;;;;0.80;0.80;;;19.20;99.90;;;;;;5012717;28;20315;-66
2022/04/16 13:01:59;;;;;;;0.85;0.85;;;19.10;99.90;;;;;;5013390;28;20670;-66
2022/04/16 13:04:26;;;;;;;0.68;0.68;;;19.10;99.90;;;;;;5011015;28;20703;-67
2022/04/16 13:06:53;;;;;;;0.90;0.90;;;19.20;99.90;;;;;;5011881;28;20205;-67
2022/04/16 13:09:20;;;;;;;0.90;0.90;;;19.20;99.90;;;;;;5008083;28;20225;-66
2022/04/16 13:11:50;;;;;;;0.80;0.80;;;19.20;99.90;;;;;;5013241;28;20209;-67
2022/04/16 13:14:17;;;;;;;0.77;0.77;;;19.20;99.90;;;;;;5012991;28;20750;-66
2022/04/16 13:16:45;;;;;;;0.80;0.80;;;19.20;99.90;;;;;;5011133;28;20320;-66
2022/04/16 13:19:13;;;;;;;0.70;0.70;;;19.20;99.90;;;;;;5009583;28;20244;-66
2022/04/16 13:21:41;;;;;;;0.70;0.70;;;19.30;99.90;;;;;;5009564;28;20206;-66
2022/04/16 13:24:11;;;;;;;0.57;0.57;;;19.30;99.90;;;;;;5008110;28;20216;-68